Time;durP1;ratioP1;P1;durP2;ratioP2;P2;SDS_P1;SDS_P2;PMS_P1;PMS_P2;Temp;Humidity;BMP_temperature;BMP_pressure;BME280_temperature;BME280_humidity;BME280_pressure;Samples;Min_cycle;Max_cycle;Signal;HPM_P1;HPM_P2
2023/05/12 00:01:56;;;;;;;;;;;;;;;21.92;55.44;101695.91;5138468;27;13644;-57
2023/05/12 00:04:23;;;;;;;;;;;;;;;21.91;55.29;101692.25;5140634;27;9028;-58
2023/05/12 00:06:52;;;;;;;;;;;;;;;21.93;55.46;101695.66;5140104;27;12753;-58
2023/05/12 00:09:19;;;;;;;;;;;;;;;21.94;55.48;101697.31;5140231;27;12688;-58
2023/05/12 00:11:47;;;;;;;;;;;;;;;21.91;55.74;101695.06;5140978;27;5416;-58
2023/05/12 00:14:14;;;;;;;;;;;;;;;21.91;55.46;101694.22;5140570;27;7945;-58
2023/05/12 00:16:42;;;;;;;;;;;;;;;21.87;55.86;101691.19;5138596;27;13891;-58
2023/05/12 00:19:09;;;;;;;;;;;;;;;21.85;55.80;101690.63;5140032;27;8999;-58
2023/05/12 00:21:35;;;;;;;;;;;;;;;21.84;55.98;101694.59;5139622;27;7522;-59
2023/05/12 00:24:02;;;;;;;;;;;;;;;21.82;56.19;101694.06;5141141;27;11861;-58
2023/05/12 00:26:29;;;;;;;;;;;;;;;21.79;56.01;101693.81;5139816;27;10033;-58
2023/05/12 00:28:56;;;;;;;;;;;;;;;21.79;56.33;101697.47;5140015;27;7690;-58
2023/05/12 00:31:23;;;;;;;;;;;;;;;21.77;56.21;101691.28;5137895;27;12929;-58
2023/05/12 00:33:49;;;;;;;;;;;;;;;21.74;56.42;101692.75;5140304;27;13739;-58
2023/05/12 00:36:16;;;;;;;;;;;;;;;21.76;56.57;101700.06;5139014;27;9437;-59
2023/05/12 00:38:43;;;;;;;;;;;;;;;21.76;56.63;101700.06;5139890;27;15660;-58
2023/05/12 00:41:09;;;;;;;;;;;;;;;21.73;56.75;101704.28;5138405;27;5343;-58
2023/05/12 00:43:36;;;;;;;;;;;;;;;21.74;56.75;101705.97;5139756;27;9277;-58
2023/05/12 00:46:04;;;;;;;;;;;;;;;21.73;56.71;101699.50;5137552;27;8320;-58
2023/05/12 00:48:31;;;;;;;;;;;;;;;21.70;56.90;101702.94;5121499;27;10599;-58
2023/05/12 00:50:59;;;;;;;;;;;;;;;21.70;56.88;101713.34;5138594;27;7837;-58
2023/05/12 00:53:26;;;;;;;;;;;;;;;21.69;57.21;101711.66;5139832;27;7783;-59
2023/05/12 00:56:07;;;;;;;;;;;;;;;21.68;57.08;101707.16;5139575;27;10203;-59
2023/05/12 00:58:33;;;;;;;;;;;;;;;21.70;57.28;101710.53;5139398;27;7928;-59
2023/05/12 01:01:01;;;;;;;;;;;;;;;21.70;57.05;101707.72;5137324;27;7775;-59
2023/05/12 01:03:29;;;;;;;;;;;;;;;21.66;57.20;101718.72;5138358;27;7290;-58
2023/05/12 01:06:00;;;;;;;;;;;;;;;21.66;57.07;101713.09;5139143;27;9466;-59
2023/05/12 01:08:28;;;;;;;;;;;;;;;21.66;57.45;101715.91;5139022;27;10201;-59
2023/05/12 01:10:55;;;;;;;;;;;;;;;21.64;57.37;101718.16;5139704;27;10200;-58
2023/05/12 01:13:23;;;;;;;;;;;;;;;21.66;57.41;101720.69;5138903;27;7995;-59
2023/05/12 01:15:52;;;;;;;;;;;;;;;21.63;57.19;101722.09;5138048;27;8297;-58
2023/05/12 01:18:20;;;;;;;;;;;;;;;21.69;57.22;101709.69;5139208;27;9195;-58
2023/05/12 01:20:48;;;;;;;;;;;;;;;21.68;57.59;101722.06;5137989;27;10295;-59
2023/05/12 01:23:18;;;;;;;;;;;;;;;21.63;57.41;101724.91;5139108;27;9456;-59
2023/05/12 01:25:48;;;;;;;;;;;;;;;21.62;57.50;101723.22;5138158;27;9047;-59
2023/05/12 01:28:15;;;;;;;;;;;;;;;21.61;57.59;101732.84;5120468;27;8906;-59
2023/05/12 01:30:42;;;;;;;;;;;;;;;21.61;57.51;101732.84;5138124;27;10266;-58
2023/05/12 01:33:10;;;;;;;;;;;;;;;21.58;57.57;101732.56;5139215;27;8335;-58
2023/05/12 01:35:37;;;;;;;;;;;;;;;21.58;57.41;101739.03;5137855;27;8158;-59
2023/05/12 01:38:04;;;;;;;;;;;;;;;21.60;57.33;101731.16;5139234;27;10837;-58
2023/05/12 01:40:31;;;;;;;;;;;;;;;21.56;57.42;101727.25;5138015;27;14032;-58
2023/05/12 01:42:58;;;;;;;;;;;;;;;21.56;57.54;101741.31;5139285;27;8153;-58
2023/05/12 01:45:25;;;;;;;;;;;;;;;21.56;57.62;101740.47;5119627;27;11143;-59
2023/05/12 01:47:52;;;;;;;;;;;;;;;21.55;57.58;101738.78;5138411;27;8048;-60
2023/05/12 01:50:20;;;;;;;;;;;;;;;21.54;57.59;101739.91;5138972;27;8274;-59
2023/05/12 01:52:47;;;;;;;;;;;;;;;21.53;57.75;101744.69;5139010;27;6743;-58
2023/05/12 01:55:15;;;;;;;;;;;;;;;21.50;57.70;101747.28;5117689;27;7682;-58
2023/05/12 01:57:42;;;;;;;;;;;;;;;21.50;57.61;101755.69;5137689;27;10925;-58
2023/05/12 02:00:10;;;;;;;;;;;;;;;21.49;57.55;101752.06;5137329;27;9447;-58
2023/05/12 02:02:37;;;;;;;;;;;;;;;21.49;57.29;101754.88;5138849;27;9545;-58
2023/05/12 02:05:09;;;;;;;;;;;;;;;21.46;57.34;101752.66;5137407;27;8004;-58
2023/05/12 02:07:37;;;;;;;;;;;;;;;21.46;57.25;101749.84;5138269;27;6493;-58
2023/05/12 02:10:06;;;;;;;;;;;;;;;21.46;57.02;101754.63;5138509;27;7602;-60
2023/05/12 02:12:34;;;;;;;;;;;;;;;21.44;57.08;101757.72;5138734;27;7506;-58
2023/05/12 02:15:03;;;;;;;;;;;;;;;21.43;57.04;101750.44;5132312;27;10278;-58
2023/05/12 02:17:31;;;;;;;;;;;;;;;21.42;56.88;101751.56;5137066;27;9539;-58
2023/05/12 02:19:59;;;;;;;;;;;;;;;21.41;56.99;101752.69;5137938;27;10148;-59
2023/05/12 02:22:27;;;;;;;;;;;;;;;21.40;56.63;101753.81;5141046;27;9727;-58
2023/05/12 02:24:54;;;;;;;;;;;;;;;21.39;56.56;101757.78;5140477;27;9836;-59
2023/05/12 02:27:21;;;;;;;;;;;;;;;21.37;56.78;101759.19;5143627;27;7898;-59
2023/05/12 02:29:48;;;;;;;;;;;;;;;21.36;56.90;101758.34;5140439;27;7522;-59
2023/05/12 02:32:16;;;;;;;;;;;;;;;21.36;56.66;101754.69;5140935;27;7783;-58
2023/05/12 02:34:44;;;;;;;;;;;;;;;21.34;57.01;101763.47;5140256;27;9319;-58
2023/05/12 02:37:12;;;;;;;;;;;;;;;21.35;56.94;101767.09;5142511;27;14105;-58
2023/05/12 02:39:42;;;;;;;;;;;;;;;21.34;56.99;101763.47;5140516;27;14128;-58
2023/05/12 02:42:09;;;;;;;;;;;;;;;21.33;56.95;101767.38;5141292;27;14197;-58
2023/05/12 02:44:37;;;;;;;;;;;;;;;21.33;56.96;101777.78;5140075;27;8267;-58
2023/05/12 02:47:04;;;;;;;;;;;;;;;21.32;56.98;101776.94;5141653;27;8008;-58
2023/05/12 02:49:31;;;;;;;;;;;;;;;21.31;57.19;101786.50;5141995;27;8088;-58
2023/05/12 02:51:58;;;;;;;;;;;;;;;21.29;57.48;101780.34;5139352;27;8532;-59
2023/05/12 02:54:24;;;;;;;;;;;;;;;21.26;57.38;101781.78;5141720;27;11938;-58
2023/05/12 02:56:52;;;;;;;;;;;;;;;21.26;57.73;101787.38;5118043;27;8130;-59
2023/05/12 02:59:19;;;;;;;;;;;;;;;21.27;57.53;101793.84;5142117;27;9567;-58
2023/05/12 03:01:46;;;;;;;;;;;;;;;21.24;57.85;101791.63;5139305;27;8463;-58
2023/05/12 03:04:15;;;;;;;;;;;;;;;21.25;57.54;101796.13;5141435;27;9468;-59
2023/05/12 03:06:42;;;;;;;;;;;;;;;21.24;57.70;101800.06;5140789;27;12593;-58
2023/05/12 03:09:09;;;;;;;;;;;;;;;21.25;58.00;101798.94;5141881;27;7977;-59
2023/05/12 03:11:36;;;;;;;;;;;;;;;21.24;57.77;101802.88;5140590;27;9829;-59
2023/05/12 03:14:03;;;;;;;;;;;;;;;21.24;57.83;101808.50;5141666;27;9651;-58
2023/05/12 03:16:30;;;;;;;;;;;;;;;21.22;57.74;101813.56;5139951;27;9492;-59
2023/05/12 03:18:57;;;;;;;;;;;;;;;21.20;57.66;101810.22;5139657;27;7971;-58
2023/05/12 03:21:24;;;;;;;;;;;;;;;21.19;57.80;101811.34;5120812;27;6449;-59
2023/05/12 03:23:51;;;;;;;;;;;;;;;21.21;57.77;101806.28;5141820;27;8211;-58
2023/05/12 03:26:18;;;;;;;;;;;;;;;21.17;57.96;101808.81;5140546;27;5435;-58
2023/05/12 03:28:45;;;;;;;;;;;;;;;21.16;57.69;101807.16;5141859;27;9919;-58
2023/05/12 03:31:12;;;;;;;;;;;;;;;21.17;57.69;101807.97;5139293;27;9596;-58
2023/05/12 03:33:39;;;;;;;;;;;;;;;21.15;57.63;101813.06;5140937;27;5790;-58
2023/05/12 03:36:07;;;;;;;;;;;;;;;21.15;57.79;101813.91;5139805;27;9185;-58
2023/05/12 03:38:34;;;;;;;;;;;;;;;21.14;57.57;101815.03;5142656;27;9200;-58
2023/05/12 03:41:02;;;;;;;;;;;;;;;21.13;57.82;101815.31;5139762;27;11208;-58
2023/05/12 03:43:29;;;;;;;;;;;;;;;21.12;57.69;101822.88;5142321;27;7689;-58
2023/05/12 03:45:56;;;;;;;;;;;;;;;21.09;57.81;101823.47;5138358;27;8036;-58
2023/05/12 03:48:23;;;;;;;;;;;;;;;21.09;57.98;101825.44;5140795;27;7956;-58
2023/05/12 03:50:50;;;;;;;;;;;;;;;21.10;57.98;101818.69;5139459;27;15141;-60
2023/05/12 03:53:17;;;;;;;;;;;;;;;21.08;58.08;101829.34;5140395;27;8004;-58
2023/05/12 03:55:44;;;;;;;;;;;;;;;21.09;57.99;101839.47;5139449;27;14208;-59
2023/05/12 03:58:11;;;;;;;;;;;;;;;21.08;58.26;101837.78;5139144;27;10725;-58
2023/05/12 04:00:37;;;;;;;;;;;;;;;21.07;58.45;101839.78;5139562;27;7522;-59
2023/05/12 04:03:04;;;;;;;;;;;;;;;21.06;58.67;101838.09;5140755;27;8185;-58
2023/05/12 04:05:31;;;;;;;;;;;;;;;21.05;58.72;101844.84;5139237;27;8388;-59
2023/05/12 04:07:58;;;;;;;;;;;;;;;21.05;58.73;101842.03;5140865;27;5452;-59
2023/05/12 04:10:25;;;;;;;;;;;;;;;21.06;58.53;101848.50;5139564;27;5567;-59
2023/05/12 04:12:53;;;;;;;;;;;;;;;21.03;58.79;101852.72;5141530;27;10849;-59
2023/05/12 04:15:20;;;;;;;;;;;;;;;21.03;58.97;101849.09;5138535;27;9533;-59
2023/05/12 04:17:49;;;;;;;;;;;;;;;21.02;58.89;101851.06;5140305;27;8206;-58
2023/05/12 04:20:18;;;;;;;;;;;;;;;21.02;58.63;101853.88;5112728;27;8244;-58
2023/05/12 04:22:46;;;;;;;;;;;;;;;21.01;58.95;101854.16;5139873;27;7534;-58
2023/05/12 04:25:13;;;;;;;;;;;;;;;21.01;58.88;101852.19;5140502;27;7601;-58
2023/05/12 04:27:40;;;;;;;;;;;;;;;21.00;58.71;101850.50;5140493;27;5494;-58
2023/05/12 04:30:07;;;;;;;;;;;;;;;20.99;58.97;101857.22;5113786;27;8285;-59
2023/05/12 04:32:35;;;;;;;;;;;;;;;20.98;58.85;101858.38;5140470;27;12332;-58
2023/05/12 04:35:02;;;;;;;;;;;;;;;20.97;58.90;101862.31;5141338;27;8533;-58
2023/05/12 04:37:28;;;;;;;;;;;;;;;20.97;58.88;101862.31;5141282;27;7142;-59
2023/05/12 04:39:55;;;;;;;;;;;;;;;20.97;58.85;101861.47;5141052;27;5798;-59
2023/05/12 04:42:22;;;;;;;;;;;;;;;20.97;59.08;101873.56;5141307;27;7562;-58
2023/05/12 04:44:49;;;;;;;;;;;;;;;20.96;58.75;101863.44;5137774;27;14279;-58
2023/05/12 04:47:15;;;;;;;;;;;;;;;20.96;59.13;101874.69;5138136;27;14148;-58
2023/05/12 04:49:42;;;;;;;;;;;;;;;20.95;58.87;101880.56;5139185;27;14661;-58
2023/05/12 04:52:10;;;;;;;;;;;;;;;20.92;59.10;101882.00;5141554;27;16089;-58
2023/05/12 04:54:37;;;;;;;;;;;;;;;20.94;59.16;101885.34;5141026;27;10019;-58
2023/05/12 04:57:05;;;;;;;;;;;;;;;20.93;59.16;101878.06;5139415;27;9635;-58
2023/05/12 04:59:32;;;;;;;;;;;;;;;20.92;59.19;101879.19;5138620;27;7529;-58
2023/05/12 05:01:59;;;;;;;;;;;;;;;20.93;59.22;101880.88;5138019;27;5138;-58
2023/05/12 05:04:26;;;;;;;;;;;;;;;20.92;59.34;101881.16;5139338;27;6658;-58
2023/05/12 05:06:54;;;;;;;;;;;;;;;20.92;59.27;101886.78;5138818;27;8928;-58
2023/05/12 05:09:21;;;;;;;;;;;;;;;20.91;59.35;101885.94;5139492;27;7524;-59
2023/05/12 05:11:49;;;;;;;;;;;;;;;20.89;59.85;101895.78;5139427;27;5726;-57
2023/05/12 05:14:16;;;;;;;;;;;;;;;20.87;59.75;101896.06;5138612;27;9737;-57
2023/05/12 05:16:44;;;;;;;;;;;;;;;20.90;60.16;101900.25;5137798;27;7981;-57
2023/05/12 05:19:12;;;;;;;;;;;;;;;20.89;60.36;101907.03;5139418;27;11138;-58
2023/05/12 05:21:55;;;;;;;;;;;;;;;20.86;60.49;101900.84;5138970;27;10272;-57
2023/05/12 05:24:23;;;;;;;;;;;;;;;20.88;60.38;101910.97;5139197;27;9943;-57
2023/05/12 05:26:50;;;;;;;;;;;;;;;20.86;60.29;101914.88;5139102;27;10232;-58
2023/05/12 05:29:17;;;;;;;;;;;;;;;20.88;60.46;101919.38;5138443;27;8309;-58
2023/05/12 05:31:45;;;;;;;;;;;;;;;20.86;60.48;101908.44;5138537;27;10851;-57
2023/05/12 05:34:12;;;;;;;;;;;;;;;20.85;60.49;101913.22;5139736;27;7756;-57
2023/05/12 05:36:40;;;;;;;;;;;;;;;20.86;60.33;101922.47;5120525;27;5818;-58
2023/05/12 05:39:09;;;;;;;;;;;;;;;20.84;60.29;101907.91;5138611;27;10205;-58
2023/05/12 05:41:38;;;;;;;;;;;;;;;20.83;60.52;101929.53;5116229;27;10251;-58
2023/05/12 05:44:06;;;;;;;;;;;;;;;20.84;60.71;101924.75;5115435;27;10206;-58
2023/05/12 05:46:35;;;;;;;;;;;;;;;20.82;60.78;101927.84;5116594;27;10268;-58
2023/05/12 05:49:03;;;;;;;;;;;;;;;20.84;60.50;101931.22;5117260;27;10127;-58
2023/05/12 05:51:30;;;;;;;;;;;;;;;20.83;60.39;101923.06;5117968;27;8051;-59
2023/05/12 05:54:00;;;;;;;;;;;;;;;20.82;60.50;101927.00;5118259;27;10506;-58
2023/05/12 05:56:27;;;;;;;;;;;;;;;20.80;60.68;101924.47;5118098;27;10245;-58
2023/05/12 05:58:55;;;;;;;;;;;;;;;20.82;60.62;101927.84;5118401;27;10206;-58
2023/05/12 06:01:24;;;;;;;;;;;;;;;20.80;60.62;101929.25;5115902;27;10038;-58
2023/05/12 06:03:51;;;;;;;;;;;;;;;20.82;60.44;101930.66;5118367;27;6710;-58
2023/05/12 06:06:18;;;;;;;;;;;;;;;20.80;60.33;101930.06;5118008;27;8177;-58
2023/05/12 06:08:46;;;;;;;;;;;;;;;20.81;60.47;101937.38;5118357;27;8364;-58
2023/05/12 06:11:15;;;;;;;;;;;;;;;20.81;60.48;101937.38;5117203;27;11232;-58
2023/05/12 06:13:47;;;;;;;;;;;;;;;20.81;60.66;101942.16;5117363;27;5307;-57
2023/05/12 06:16:15;;;;;;;;;;;;;;;20.80;60.69;101935.69;5117378;27;7984;-57
2023/05/12 06:18:48;;;;;;;;;;;;;;;20.78;60.58;101937.97;5116095;27;5417;-58
2023/05/12 06:21:22;;;;;;;;;;;;;;;20.86;60.69;101942.97;5116736;27;8003;-56
2023/05/12 06:23:50;;;;;;;;;;;;;;;20.80;60.58;101935.69;5118447;27;9140;-57
2023/05/12 06:26:21;;;;;;;;;;;;;;;20.77;60.67;101941.88;5117351;27;9530;-57
2023/05/12 06:28:52;;;;;;;;;;;;;;;20.75;60.71;101938.53;5117302;27;7985;-57
2023/05/12 06:31:21;;;;;;;;;;;;;;;20.74;60.58;101942.47;5115628;27;5491;-58
2023/05/12 06:33:49;;;;;;;;;;;;;;;20.71;55.85;101951.47;5117185;27;9275;-57
2023/05/12 06:36:17;;;;;;;;;;;;;;;20.52;53.24;101947.59;5116912;27;16669;-58
2023/05/12 06:38:44;;;;;;;;;;;;;;;20.44;52.63;101950.97;5117184;27;11869;-57
2023/05/12 06:41:12;;;;;;;;;;;;;;;20.35;51.86;101955.50;5105542;27;12362;-57
2023/05/12 06:43:39;;;;;;;;;;;;;;;20.27;51.35;101940.00;5132491;27;14096;-57
2023/05/12 06:46:08;;;;;;;;;;;;;;;20.33;51.35;101952.09;5136406;27;9538;-57
2023/05/12 06:48:38;;;;;;;;;;;;;;;20.25;51.22;101950.69;5136832;27;10783;-57
2023/05/12 06:51:07;;;;;;;;;;;;;;;20.15;51.32;101950.69;5134195;27;8340;-57
2023/05/12 06:53:36;;;;;;;;;;;;;;;20.18;50.89;101957.69;5138300;27;12182;-57
2023/05/12 06:56:03;;;;;;;;;;;;;;;20.14;51.15;101956.56;5137375;27;14119;-57
2023/05/12 06:58:30;;;;;;;;;;;;;;;20.06;51.21;101957.16;5104211;27;11850;-57
2023/05/12 07:01:00;;;;;;;;;;;;;;;19.99;50.73;101952.66;5135928;27;7954;-57
2023/05/12 07:03:26;;;;;;;;;;;;;;;19.94;50.84;101949.84;5136748;27;14101;-57
2023/05/12 07:05:53;;;;;;;;;;;;;;;19.94;51.13;101963.88;5131985;27;13501;-57
2023/05/12 07:08:19;;;;;;;;;;;;;;;19.95;50.66;101951.53;5127804;27;14330;-57
2023/05/12 07:10:46;;;;;;;;;;;;;;;19.82;51.35;101954.88;5136644;27;15760;-57
2023/05/12 07:13:13;;;;;;;;;;;;;;;19.87;51.25;101954.91;5139675;27;13521;-57
2023/05/12 07:15:39;;;;;;;;;;;;;;;19.90;50.89;101959.94;5138251;27;9744;-57
2023/05/12 07:18:06;;;;;;;;;;;;;;;19.91;50.95;101964.44;5139047;27;12344;-57
2023/05/12 07:20:33;;;;;;;;;;;;;;;19.81;51.34;101969.19;5138893;27;9702;-57
2023/05/12 07:22:59;;;;;;;;;;;;;;;19.78;50.58;101969.75;5140492;27;11524;-57
2023/05/12 07:25:27;;;;;;;;;;;;;;;19.74;50.91;101961.06;5139321;27;10345;-57
2023/05/12 07:27:55;;;;;;;;;;;;;;;19.79;50.89;101963.88;5140571;27;11102;-57
2023/05/12 07:30:21;;;;;;;;;;;;;;;19.81;51.97;101961.63;5139065;27;7659;-62
2023/05/12 07:32:48;;;;;;;;;;;;;;;19.94;52.25;101954.63;5117966;27;8238;-57
2023/05/12 07:35:14;;;;;;;;;;;;;;;20.01;53.50;101959.94;5138760;27;10210;-58
2023/05/12 07:37:41;;;;;;;;;;;;;;;20.04;54.00;101956.56;5139274;27;15583;-58
2023/05/12 07:40:08;;;;;;;;;;;;;;;20.07;54.40;101962.50;5138382;27;9946;-58
2023/05/12 07:42:34;;;;;;;;;;;;;;;20.05;54.34;101961.06;5140805;27;8952;-61
2023/05/12 07:45:00;;;;;;;;;;;;;;;20.04;54.47;101965.84;5140704;27;9100;-58
2023/05/12 07:47:27;;;;;;;;;;;;;;;20.05;54.23;101961.06;5139680;27;10195;-58
2023/05/12 07:49:54;;;;;;;;;;;;;;;20.04;54.62;101963.03;5121255;27;10397;-58
2023/05/12 07:52:20;;;;;;;;;;;;;;;20.02;54.50;101956.03;5140247;27;7297;-58
2023/05/12 07:54:47;;;;;;;;;;;;;;;20.03;54.61;101955.75;5139478;27;8085;-58
2023/05/12 07:57:14;;;;;;;;;;;;;;;20.04;55.08;101959.38;5139470;27;8085;-59
2023/05/12 07:59:41;;;;;;;;;;;;;;;20.02;54.94;101968.09;5139918;27;9832;-57
2023/05/12 08:02:08;;;;;;;;;;;;;;;20.03;54.97;101963.34;5138998;27;14189;-57
2023/05/12 08:04:34;;;;;;;;;;;;;;;20.04;55.17;101971.44;5116449;27;14587;-57
2023/05/12 08:07:01;;;;;;;;;;;;;;;20.05;55.24;101977.91;5139569;27;9654;-57
2023/05/12 08:09:28;;;;;;;;;;;;;;;20.03;55.21;101966.97;5140131;27;8449;-57
2023/05/12 08:11:54;;;;;;;;;;;;;;;20.03;55.39;101980.16;5139665;27;8060;-57
2023/05/12 08:14:21;;;;;;;;;;;;;;;20.05;55.41;101966.69;5137156;27;10134;-57
2023/05/12 08:16:48;;;;;;;;;;;;;;;20.03;55.36;101961.38;5137733;27;8189;-58
2023/05/12 08:19:14;;;;;;;;;;;;;;;20.05;55.30;101967.53;5139885;27;7999;-58
2023/05/12 08:21:41;;;;;;;;;;;;;;;20.05;55.37;101963.88;5138548;27;11116;-57
2023/05/12 08:24:08;;;;;;;;;;;;;;;20.06;55.50;101968.38;5140516;27;11966;-59
2023/05/12 08:26:34;;;;;;;;;;;;;;;20.08;55.32;101963.34;5139686;27;11189;-57
2023/05/12 08:29:01;;;;;;;;;;;;;;;20.09;55.23;101959.38;5139739;27;10381;-57
2023/05/12 08:31:27;;;;;;;;;;;;;;;20.09;55.44;101968.66;5139858;27;7491;-57
2023/05/12 08:33:54;;;;;;;;;;;;;;;20.09;55.50;101976.22;5139405;27;10237;-57
2023/05/12 08:36:35;;;;;;;;;;;;;;;20.11;55.40;101972.03;5140980;27;9926;-59
2023/05/12 08:39:03;;;;;;;;;;;;;;;20.12;55.46;101972.88;5139218;27;10175;-59
2023/05/12 08:41:29;;;;;;;;;;;;;;;20.13;55.23;101977.34;5120670;27;8681;-57
2023/05/12 08:43:56;;;;;;;;;;;;;;;20.12;55.64;101972.88;5139672;27;10202;-57
2023/05/12 08:46:22;;;;;;;;;;;;;;;20.13;55.30;101972.56;5139565;27;10954;-57
2023/05/12 08:48:50;;;;;;;;;;;;;;;20.13;55.50;101977.34;5139874;27;7520;-57
2023/05/12 08:51:21;;;;;;;;;;;;;;;20.14;55.24;101981.84;5140982;27;10669;-59
2023/05/12 08:53:48;;;;;;;;;;;;;;;20.14;55.58;101977.06;5139331;27;8374;-57
2023/05/12 08:56:18;;;;;;;;;;;;;;;20.16;55.37;101979.59;5139540;27;7569;-57
2023/05/12 08:58:48;;;;;;;;;;;;;;;20.16;55.33;101979.59;5136621;27;8918;-58
2023/05/12 09:01:16;;;;;;;;;;;;;;;20.17;55.16;101984.09;5138434;27;8242;-58
2023/05/12 09:03:43;;;;;;;;;;;;;;;20.17;55.47;101982.09;5137799;27;7336;-57
2023/05/12 09:06:10;;;;;;;;;;;;;;;20.18;55.43;101975.38;5139689;27;7771;-57
2023/05/12 09:08:38;;;;;;;;;;;;;;;20.19;55.34;101979.03;5139038;27;7986;-57
2023/05/12 09:11:04;;;;;;;;;;;;;;;20.20;55.04;101980.72;5139242;27;8171;-57
2023/05/12 09:13:36;;;;;;;;;;;;;;;20.21;55.12;101979.59;5140623;27;7819;-57
2023/05/12 09:16:05;;;;;;;;;;;;;;;20.21;55.09;101985.22;5139200;27;7697;-59
2023/05/12 09:19:05;;;;;;;;;;;;;;;20.21;55.46;101999.25;5138506;27;7603;-57
2023/05/12 09:21:33;;;;;;;;;;;;;;;20.22;55.41;101990.53;5066814;27;14860;-57
2023/05/12 09:24:06;;;;;;;;;;;;;;;20.24;55.31;101990.25;5139730;27;15385;-57
2023/05/12 09:26:52;;;;;;;;;;;;;;;20.24;55.45;101998.66;5138938;27;8317;-57
2023/05/12 09:29:19;;;;;;;;;;;;;;;20.25;55.12;102001.22;5138074;27;14800;-58
2023/05/12 09:31:58;;;;;;;;;;;;;;;20.26;55.16;101999.25;5138129;27;9187;-58
2023/05/12 09:34:29;;;;;;;;;;;;;;;20.26;55.32;102000.06;5138091;27;8060;-58
2023/05/12 09:36:57;;;;;;;;;;;;;;;20.24;55.18;102002.31;5139117;27;7544;-59
2023/05/12 09:39:24;;;;;;;;;;;;;;;20.25;55.10;102004.00;5139148;27;9262;-58
2023/05/12 09:41:51;;;;;;;;;;;;;;;20.24;54.96;101999.50;5139520;27;9414;-58
2023/05/12 09:44:18;;;;;;;;;;;;;;;20.25;55.23;102003.16;5137846;27;9636;-58
2023/05/12 09:46:45;;;;;;;;;;;;;;;20.26;55.06;102016.91;5134583;27;7251;-58
2023/05/12 09:49:11;;;;;;;;;;;;;;;20.25;55.28;102003.16;5138012;27;11423;-57
2023/05/12 09:51:39;;;;;;;;;;;;;;;20.27;55.27;102024.19;5138837;27;11164;-59
2023/05/12 09:54:05;;;;;;;;;;;;;;;20.27;55.35;102020.56;5138007;27;10605;-58
2023/05/12 09:56:36;;;;;;;;;;;;;;;20.26;55.16;102019.72;5135941;27;5031;-58
2023/05/12 09:59:04;;;;;;;;;;;;;;;20.26;55.35;102027.31;5138168;27;7551;-57
2023/05/12 10:01:30;;;;;;;;;;;;;;;20.25;55.34;102006.81;5137240;27;11957;-58
2023/05/12 10:03:57;;;;;;;;;;;;;;;20.26;55.12;102016.09;5134813;27;7692;-58
2023/05/12 10:06:24;;;;;;;;;;;;;;;20.25;54.94;102012.44;5138853;27;10572;-58
2023/05/12 10:09:00;;;;;;;;;;;;;;;20.24;55.24;102019.16;5138009;27;18022;-58
2023/05/12 10:11:27;;;;;;;;;;;;;;;20.25;55.48;102025.63;5137550;27;16164;-58
2023/05/12 10:13:54;;;;;;;;;;;;;;;20.24;55.32;102024.78;5138360;27;10251;-58
2023/05/12 10:16:21;;;;;;;;;;;;;;;20.24;55.53;102019.16;5118511;27;10002;-58
2023/05/12 10:18:48;;;;;;;;;;;;;;;20.24;55.21;102024.78;5138229;27;8312;-58
2023/05/12 10:21:15;;;;;;;;;;;;;;;20.22;55.35;102023.34;5137531;27;8018;-57
2023/05/12 10:23:43;;;;;;;;;;;;;;;20.23;55.47;102027.84;5136440;27;8245;-57
2023/05/12 10:26:10;;;;;;;;;;;;;;;20.22;55.42;102026.16;5137730;27;10049;-57
2023/05/12 10:28:37;;;;;;;;;;;;;;;20.23;55.45;102028.69;5139796;27;8243;-57
2023/05/12 10:31:05;;;;;;;;;;;;;;;20.24;55.42;102026.72;5136842;27;6365;-60
2023/05/12 10:33:31;;;;;;;;;;;;;;;20.24;55.52;102032.34;5138247;27;5469;-57
2023/05/12 10:35:58;;;;;;;;;;;;;;;20.21;55.48;102025.34;5137359;27;8060;-58
2023/05/12 10:38:25;;;;;;;;;;;;;;;20.24;55.41;102021.13;5139051;27;6305;-58
2023/05/12 10:40:52;;;;;;;;;;;;;;;20.22;55.43;102018.59;5135776;27;10560;-58
2023/05/12 10:43:23;;;;;;;;;;;;;;;20.21;55.54;102016.94;5140577;27;5792;-58
2023/05/12 10:46:08;;;;;;;;;;;;;;;20.21;55.51;102007.66;5136712;27;8180;-57
2023/05/12 10:48:55;;;;;;;;;;;;;;;20.19;55.36;102007.94;5122772;27;8071;-57
2023/05/12 10:51:27;;;;;;;;;;;;;;;20.20;55.64;102004.00;5133568;27;8817;-58
2023/05/12 10:53:58;;;;;;;;;;;;;;;20.21;55.67;102016.09;5142307;27;10296;-57
2023/05/12 10:56:29;;;;;;;;;;;;;;;20.21;55.67;102002.91;5123602;27;10001;-56
2023/05/12 10:59:12;;;;;;;;;;;;;;;20.22;55.66;101998.94;5141012;27;8291;-57
2023/05/12 11:01:40;;;;;;;;;;;;;;;20.22;55.59;102001.75;5111167;27;5492;-59
2023/05/12 11:04:15;;;;;;;;;;;;;;;20.21;55.71;101999.25;5141106;27;8000;-59
2023/05/12 11:06:42;;;;;;;;;;;;;;;20.20;55.60;102003.16;5136898;27;7707;-59
2023/05/12 11:09:12;;;;;;;;;;;;;;;20.20;55.60;101994.75;5119249;27;7777;-58
2023/05/12 11:11:39;;;;;;;;;;;;;;;20.23;55.55;101996.97;5118715;27;10680;-58
2023/05/12 11:14:07;;;;;;;;;;;;;;;20.22;55.65;101984.06;5140241;27;14915;-58
2023/05/12 11:16:39;;;;;;;;;;;;;;;20.22;55.36;101992.47;5139610;27;15277;-58
2023/05/12 11:19:06;;;;;;;;;;;;;;;20.20;55.67;101975.94;5138073;27;9253;-58
2023/05/12 11:21:32;;;;;;;;;;;;;;;20.21;55.89;101982.41;5140349;27;9455;-58
2023/05/12 11:24:00;;;;;;;;;;;;;;;20.21;55.62;101988.88;5141355;27;8089;-58
2023/05/12 11:26:28;;;;;;;;;;;;;;;20.20;55.73;101986.31;5140642;27;8797;-58
2023/05/12 11:28:58;;;;;;;;;;;;;;;20.20;55.81;101998.41;5140504;27;8361;-58
2023/05/12 11:31:24;;;;;;;;;;;;;;;20.20;55.99;101989.13;5139741;27;14741;-57
2023/05/12 11:34:01;;;;;;;;;;;;;;;20.20;56.07;102003.16;5136935;27;14605;-58
2023/05/12 11:36:38;;;;;;;;;;;;;;;20.19;55.84;101988.28;5137273;27;14890;-57
2023/05/12 11:39:06;;;;;;;;;;;;;;;20.20;55.95;101987.16;5140307;27;14850;-58
2023/05/12 11:41:32;;;;;;;;;;;;;;;20.20;55.67;101984.38;5141781;27;7926;-58
2023/05/12 11:43:59;;;;;;;;;;;;;;;20.20;56.10;101992.78;5139421;27;9482;-58
2023/05/12 11:46:26;;;;;;;;;;;;;;;20.19;56.13;101977.06;5113332;27;14237;-58
2023/05/12 11:48:56;;;;;;;;;;;;;;;20.21;55.83;101983.25;5139924;27;7616;-58
2023/05/12 11:51:24;;;;;;;;;;;;;;;20.21;55.78;101990.81;5140170;27;12220;-58
2023/05/12 11:53:51;;;;;;;;;;;;;;;20.20;55.97;101984.38;5140000;27;7533;-58
2023/05/12 11:56:22;;;;;;;;;;;;;;;20.20;56.15;101980.72;5140782;27;12555;-58
2023/05/12 11:58:55;;;;;;;;;;;;;;;20.20;55.86;101984.38;5140272;27;7610;-58
2023/05/12 12:01:22;;;;;;;;;;;;;;;20.19;55.88;101991.09;5139213;27;9803;-59
2023/05/12 12:03:50;;;;;;;;;;;;;;;20.20;56.16;101970.34;5138867;27;7532;-58
2023/05/12 12:06:17;;;;;;;;;;;;;;;20.20;55.91;101975.09;5139719;27;14205;-58
2023/05/12 12:09:01;;;;;;;;;;;;;;;20.19;56.21;101974.25;5141252;27;14769;-58
2023/05/12 12:11:29;;;;;;;;;;;;;;;20.21;55.85;101976.78;5118561;27;14508;-58
2023/05/12 12:13:56;;;;;;;;;;;;;;;20.20;56.05;101977.91;5140139;27;14453;-58
2023/05/12 12:16:23;;;;;;;;;;;;;;;20.20;56.05;101978.75;5139049;27;10176;-60
2023/05/12 12:18:49;;;;;;;;;;;;;;;20.22;55.81;101976.50;5139852;27;5340;-57
2023/05/12 12:21:16;;;;;;;;;;;;;;;20.21;55.97;101974.00;5138987;27;10981;-58
2023/05/12 12:23:44;;;;;;;;;;;;;;;20.20;55.88;101970.34;5141794;27;14265;-58
2023/05/12 12:26:19;;;;;;;;;;;;;;;20.20;55.99;101970.34;5136213;27;9380;-58
2023/05/12 12:28:46;;;;;;;;;;;;;;;20.20;56.01;101973.16;5117103;27;9891;-58
2023/05/12 12:31:13;;;;;;;;;;;;;;;20.18;56.12;101978.19;5111815;27;5356;-58
2023/05/12 12:33:39;;;;;;;;;;;;;;;20.19;55.93;101971.44;5139702;27;10509;-58
2023/05/12 12:36:06;;;;;;;;;;;;;;;20.19;55.99;101974.25;5135103;27;13888;-58
2023/05/12 12:38:33;;;;;;;;;;;;;;;20.18;56.28;101978.19;5140504;27;9649;-58
2023/05/12 12:40:59;;;;;;;;;;;;;;;20.20;56.18;101975.09;5137984;27;10216;-58
2023/05/12 12:43:26;;;;;;;;;;;;;;;20.17;55.98;101968.06;5139623;27;7727;-58
2023/05/12 12:45:53;;;;;;;;;;;;;;;20.18;56.33;101961.34;5138150;27;9255;-58
2023/05/12 12:48:20;;;;;;;;;;;;;;;20.18;56.26;101972.56;5140134;27;9487;-58